createdAt,value
2023-02-18T00:00:46.308Z,97726.56
2023-02-18T00:01:47.869Z,97722.59
2023-02-18T00:02:52.271Z,97717.28
2023-02-18T00:03:54.324Z,97719.38
2023-02-18T00:04:56.018Z,97717.53
2023-02-18T00:05:57.638Z,97719.13
2023-02-18T00:06:59.676Z,97723.88
2023-02-18T00:08:01.202Z,97720.16
2023-02-18T00:09:04.291Z,97714.88
2023-02-18T00:10:10.038Z,97715.66
2023-02-18T00:11:13.026Z,97706.91
2023-02-18T00:12:14.558Z,97707.97
2023-02-18T00:13:16.252Z,97711.19
2023-02-18T00:14:17.929Z,97710.63
2023-02-18T00:15:19.652Z,97704.53
2023-02-18T00:16:22.531Z,97705.34
2023-02-18T00:17:24.531Z,97706.94
2023-02-18T00:18:26.080Z,97706.94
2023-02-18T00:19:27.737Z,97709.06
2023-02-18T00:20:29.316Z,97711.19
2023-02-18T00:21:33.483Z,97712.25
2023-02-18T00:22:35.422Z,97706.69
2023-02-18T00:23:36.951Z,97712.25
2023-02-18T00:24:39.159Z,97705.63
2023-02-18T00:25:40.700Z,97706.94
2023-02-18T00:26:42.293Z,97707.50
2023-02-18T00:27:43.872Z,97709.09
2023-02-18T00:28:45.829Z,97709.59
2023-02-18T00:29:47.414Z,97710.94
2023-02-18T00:30:48.952Z,97713.59
2023-02-18T00:31:50.583Z,97706.69
2023-02-18T00:32:52.203Z,97712.25
2023-02-18T00:33:54.304Z,97712.25
2023-02-18T00:34:55.840Z,97713.84
2023-02-18T00:36:05.876Z,97709.34
2023-02-18T00:37:07.780Z,97713.84
2023-02-18T00:38:09.410Z,97706.41
2023-02-18T00:39:11.954Z,97708.53
2023-02-18T00:40:13.522Z,97701.09
2023-02-18T00:41:15.664Z,97701.38
2023-02-18T00:42:17.258Z,97702.69
2023-02-18T00:43:18.812Z,97696.09
2023-02-18T00:44:20.402Z,97697.69
2023-02-18T00:45:21.978Z,97698.75
2023-02-18T00:46:25.161Z,97700.34
2023-02-18T00:47:26.751Z,97686.81
2023-02-18T00:48:28.433Z,97688.13
2023-02-18T00:49:30.139Z,97690.25
2023-02-18T00:50:31.712Z,97683.63
2023-02-18T00:51:34.134Z,97692.09
2023-02-18T00:52:35.669Z,97688.38
2023-02-18T00:53:37.851Z,97689.69
2023-02-18T00:54:39.407Z,97684.69
2023-02-18T00:55:45.464Z,97686.25
2023-02-18T00:56:47.114Z,97684.34
2023-02-18T00:57:48.717Z,97686.13
2023-02-18T00:58:50.772Z,97685.03
2023-02-18T00:59:52.434Z,97677.50
2023-02-18T01:00:54.724Z,97678.22
2023-02-18T01:01:56.316Z,97675.84
2023-02-18T01:02:57.926Z,97671.50
2023-02-18T01:03:59.527Z,97666.16
2023-02-18T01:05:01.121Z,97664.78
2023-02-18T01:06:03.639Z,97666.56
2023-02-18T01:07:05.182Z,97671.03
2023-02-18T01:08:07.858Z,97661.50
2023-02-18T01:09:10.149Z,97663.69
2023-02-18T01:10:11.768Z,97660.88
2023-02-18T01:11:13.775Z,97650.91
2023-02-18T01:12:16.203Z,97648.81
2023-02-18T01:13:17.845Z,97649.88
2023-02-18T01:14:19.473Z,97646.75
2023-02-18T01:15:22.071Z,97636.69
2023-02-18T01:16:24.472Z,97636.72
2023-02-18T01:17:26.261Z,97639.69
2023-02-18T01:18:28.151Z,97640.53
2023-02-18T01:19:29.713Z,97638.97
2023-02-18T01:20:31.326Z,97640.84
2023-02-18T01:21:32.897Z,97632.66
2023-02-18T01:22:34.461Z,97634.00
2023-02-18T01:23:38.238Z,97638.00
2023-02-18T01:24:39.851Z,97632.44
2023-02-18T01:25:41.940Z,97630.84
2023-02-18T01:26:43.473Z,97627.41
2023-02-18T01:27:45.132Z,97632.72
2023-02-18T01:28:46.865Z,97623.44
2023-02-18T01:29:48.459Z,97624.78
2023-02-18T01:30:51.354Z,97626.09
2023-02-18T01:31:53.734Z,97629.81
2023-02-18T01:32:56.523Z,97626.09
2023-02-18T01:33:58.110Z,97620.03
2023-02-18T01:35:06.510Z,97624.53
2023-02-18T01:36:09.501Z,97625.59
2023-02-18T01:37:11.391Z,97615.78
2023-02-18T01:38:12.994Z,97618.44
2023-02-18T01:39:14.527Z,97621.88
2023-02-18T01:40:18.551Z,97615.78
2023-02-18T01:41:20.393Z,97618.16
2023-02-18T01:42:26.403Z,97615.78
2023-02-18T01:43:27.985Z,97606.22
2023-02-18T01:44:30.381Z,97606.47
2023-02-18T01:45:35.180Z,97612.56
2023-02-18T01:46:36.753Z,97609.31
2023-02-18T01:47:38.297Z,97612.69
2023-02-18T01:48:44.366Z,97617.91
2023-02-18T01:49:50.763Z,97617.59
2023-02-18T01:51:04.379Z,97614.06
2023-02-18T01:52:11.763Z,97612.66
2023-02-18T01:53:16.824Z,97619.81
2023-02-18T01:54:20.435Z,97617.50
2023-02-18T01:55:22.096Z,97613.84
2023-02-18T01:57:13.099Z,97612.34
2023-02-18T01:58:15.644Z,97614.50
2023-02-18T01:59:24.034Z,97615.06
2023-02-18T02:00:25.876Z,97615.63
2023-02-18T02:01:27.967Z,97616.97
2023-02-18T02:02:31.909Z,97616.72
2023-02-18T02:03:33.444Z,97616.44
2023-02-18T02:04:35.026Z,97620.63
2023-02-18T02:05:36.604Z,97613.22
2023-02-18T02:06:38.543Z,97618.28
2023-02-18T02:07:42.181Z,97614.06
2023-02-18T02:08:45.914Z,97617.25
2023-02-18T02:09:49.116Z,97620.41
2023-02-18T02:11:06.619Z,97618.28
2023-02-18T02:12:36.492Z,97623.59
2023-02-18T02:14:15.603Z,97625.16
2023-02-18T02:15:41.994Z,97623.06
2023-02-18T02:17:08.777Z,97628.56
2023-02-18T02:18:35.054Z,97626.06
2023-02-18T02:19:48.758Z,97626.50
2023-02-18T02:21:20.943Z,97631.72
2023-02-18T02:23:01.109Z,97635.91
2023-02-18T02:24:33.301Z,97634.16
2023-02-18T02:26:01.338Z,97643.63
2023-02-18T02:27:19.878Z,97641.66
2023-02-18T02:29:13.512Z,97644.88
2023-02-18T02:30:40.932Z,97637.38
2023-02-18T02:31:45.535Z,97642.91
2023-02-18T02:33:11.430Z,97640.53
2023-02-18T02:34:46.975Z,97635.31
2023-02-18T02:35:57.018Z,97643.94
2023-02-18T02:37:34.827Z,97642.63
2023-02-18T02:39:07.260Z,97647.56
2023-02-18T02:40:27.205Z,97652.56
2023-02-18T02:41:37.964Z,97652.88
2023-02-18T02:42:52.072Z,97661.66
2023-02-18T02:44:01.476Z,97651.09
2023-02-18T02:45:21.990Z,97654.28
2023-02-18T02:46:31.518Z,97651.63
2023-02-18T02:47:45.559Z,97652.75
2023-02-18T02:49:09.236Z,97651.72
2023-02-18T02:50:18.267Z,97651.78
2023-02-18T02:51:32.442Z,97664.50
2023-02-18T02:52:41.104Z,97652.41
2023-02-18T02:53:44.027Z,97658.31
2023-02-18T02:54:45.639Z,97658.41
2023-02-18T02:55:47.442Z,97658.44
2023-02-18T02:56:49.134Z,97660.50
2023-02-18T02:57:55.266Z,97663.63
2023-02-18T02:59:03.202Z,97659.38
2023-02-18T03:00:10.487Z,97654.53
2023-02-18T03:01:38.070Z,97658.47
2023-02-18T03:02:45.477Z,97665.50
2023-02-18T03:04:05.426Z,97655.75
2023-02-18T03:05:37.303Z,97651.88
2023-02-18T03:06:57.426Z,97663.41
2023-02-18T03:08:12.485Z,97657.59
2023-02-18T03:09:21.683Z,97659.97
2023-02-18T03:10:50.393Z,97663.72
2023-02-18T03:12:03.101Z,97666.03
2023-02-18T03:13:42.915Z,97664.69
2023-02-18T03:14:59.553Z,97665.00
2023-02-18T03:16:19.963Z,97662.41
2023-02-18T03:17:25.066Z,97662.41
2023-02-18T03:18:51.150Z,97665.94
2023-02-18T03:20:07.351Z,97657.78
2023-02-18T03:21:22.041Z,97666.28
2023-02-18T03:22:29.214Z,97658.94
2023-02-18T03:23:39.994Z,97666.34
2023-02-18T03:24:47.101Z,97663.72
2023-02-18T03:25:50.114Z,97661.06
2023-02-18T03:26:56.480Z,97667.94
2023-02-18T03:28:03.030Z,97665.88
2023-02-18T03:29:08.631Z,97666.16
2023-02-18T03:30:18.151Z,97667.47
2023-02-18T03:31:23.262Z,97665.31
2023-02-18T03:32:27.268Z,97663.41
2023-02-18T03:33:35.410Z,97661.75
2023-02-18T03:34:41.690Z,97661.44
2023-02-18T03:35:45.396Z,97669.19
2023-02-18T03:36:47.487Z,97681.06
2023-02-18T03:37:58.316Z,97670.41
2023-02-18T03:39:14.050Z,97678.53
2023-02-18T03:40:17.208Z,97679.97
2023-02-18T03:41:18.832Z,97676.38
2023-02-18T03:42:24.775Z,97679.88
2023-02-18T03:43:26.410Z,97676.47
2023-02-18T03:44:27.953Z,97671.16
2023-02-18T03:45:29.524Z,97670.81
2023-02-18T03:46:32.094Z,97675.38
2023-02-18T03:47:33.709Z,97676.50
2023-02-18T03:48:35.262Z,97673.00
2023-02-18T03:49:36.847Z,97682.97
2023-02-18T03:50:38.520Z,97678.50
2023-02-18T03:51:40.124Z,97673.06
2023-02-18T03:52:41.664Z,97675.31
2023-02-18T03:53:43.258Z,97676.13
2023-02-18T03:54:44.790Z,97677.66
2023-02-18T03:55:46.430Z,97673.88
2023-02-18T03:56:49.353Z,97669.09
2023-02-18T03:57:51.106Z,97680.66
2023-02-18T03:58:52.792Z,97678.59
2023-02-18T03:59:54.353Z,97680.28
2023-02-18T04:00:55.943Z,97684.56
2023-02-18T04:01:57.532Z,97675.78
2023-02-18T04:02:59.171Z,97674.41
2023-02-18T04:04:00.770Z,97675.63
2023-02-18T04:05:02.367Z,97676.09
2023-02-18T04:06:04.346Z,97676.66
2023-02-18T04:07:05.927Z,97681.28
2023-02-18T04:08:07.492Z,97684.84
2023-02-18T04:09:09.327Z,97687.56
2023-02-18T04:10:11.769Z,97683.81
2023-02-18T04:11:13.335Z,97689.00
2023-02-18T04:12:14.978Z,97696.50
2023-02-18T04:13:19.881Z,97693.06
2023-02-18T04:14:21.499Z,97694.75
2023-02-18T04:15:23.069Z,97692.53
2023-02-18T04:16:24.614Z,97689.28
2023-02-18T04:17:26.587Z,97692.34
2023-02-18T04:18:28.194Z,97685.06
2023-02-18T04:19:29.721Z,97692.25
2023-02-18T04:20:31.745Z,97686.00
2023-02-18T04:21:33.977Z,97695.53
2023-02-18T04:22:35.541Z,97689.78
2023-02-18T04:23:37.085Z,97698.31
2023-02-18T04:24:38.668Z,97699.47
2023-02-18T04:25:40.452Z,97703.75
2023-02-18T04:26:42.023Z,97702.66
2023-02-18T04:27:43.616Z,97703.91
2023-02-18T04:28:45.304Z,97706.41
2023-02-18T04:29:46.883Z,97706.97
2023-02-18T04:30:48.956Z,97707.88
2023-02-18T04:31:50.611Z,97717.78
2023-02-18T04:32:52.206Z,97717.78
2023-02-18T04:33:53.771Z,97713.41
2023-02-18T04:34:55.331Z,97712.16
2023-02-18T04:35:56.932Z,97722.19
2023-02-18T04:36:58.601Z,97723.78
2023-02-18T04:38:00.167Z,97731.94
2023-02-18T04:39:01.741Z,97729.88
2023-02-18T04:40:03.866Z,97728.50
2023-02-18T04:41:05.542Z,97735.00
2023-02-18T04:42:09.170Z,97729.72
2023-02-18T04:43:10.838Z,97726.06
2023-02-18T04:44:12.378Z,97724.22
2023-02-18T04:45:13.942Z,97724.75
2023-02-18T04:46:15.561Z,97728.25
2023-02-18T04:47:17.252Z,97726.34
2023-02-18T04:48:18.998Z,97731.13
2023-02-18T04:49:20.576Z,97731.78
2023-02-18T04:50:23.199Z,97734.78
2023-02-18T04:51:24.872Z,97738.28
2023-02-18T04:52:26.554Z,97738.63
2023-02-18T04:53:28.106Z,97743.09
2023-02-18T04:54:29.685Z,97735.91
2023-02-18T04:55:31.250Z,97733.22
2023-02-18T04:56:32.768Z,97730.00
2023-02-18T04:57:34.538Z,97727.22
2023-02-18T04:58:36.163Z,97733.81
2023-02-18T04:59:37.768Z,97732.06
2023-02-18T05:00:39.334Z,97731.50
2023-02-18T05:01:40.935Z,97731.41
2023-02-18T05:02:42.964Z,97723.28
2023-02-18T05:03:46.129Z,97735.16
2023-02-18T05:04:47.781Z,97731.34
2023-02-18T05:05:49.318Z,97737.69
2023-02-18T05:06:51.090Z,97733.22
2023-02-18T05:07:52.764Z,97735.38
2023-02-18T05:08:54.404Z,97737.38
2023-02-18T05:09:55.967Z,97732.25
2023-02-18T05:10:57.588Z,97735.09
2023-02-18T05:11:59.206Z,97735.09
2023-02-18T05:13:01.058Z,97731.63
2023-02-18T05:14:03.053Z,97733.88
2023-02-18T05:15:05.299Z,97735.44
2023-02-18T05:16:07.403Z,97739.16
2023-02-18T05:17:09.293Z,97742.19
2023-02-18T05:18:10.884Z,97740.44
2023-02-18T05:19:16.633Z,97736.44
2023-02-18T05:20:18.403Z,97733.25
2023-02-18T05:21:20.430Z,97730.38
2023-02-18T05:22:21.954Z,97734.38
2023-02-18T05:23:25.789Z,97735.09
2023-02-18T05:24:27.376Z,97734.50
2023-02-18T05:25:28.934Z,97735.81
2023-02-18T05:26:30.540Z,97736.28
2023-02-18T05:27:32.259Z,97729.88
2023-02-18T05:28:34.264Z,97729.72
2023-02-18T05:29:35.840Z,97729.09
2023-02-18T05:30:37.431Z,97731.63
2023-02-18T05:31:39.101Z,97735.44
2023-02-18T05:32:40.925Z,97733.75
2023-02-18T05:33:42.706Z,97736.94
2023-02-18T05:34:44.280Z,97727.94
2023-02-18T05:35:45.879Z,97737.19
2023-02-18T05:36:47.431Z,97740.19
2023-02-18T05:37:48.978Z,97740.19
2023-02-18T05:38:51.466Z,97743.25
2023-02-18T05:39:53.115Z,97740.69
2023-02-18T05:40:56.009Z,97742.34
2023-02-18T05:41:57.589Z,97737.16
2023-02-18T05:42:59.156Z,97730.09
2023-02-18T05:44:19.452Z,97734.06
2023-02-18T05:45:20.990Z,97734.06
2023-02-18T05:46:22.724Z,97726.59
2023-02-18T05:47:24.365Z,97727.31
2023-02-18T05:48:25.924Z,97725.41
2023-02-18T05:49:29.221Z,97727.81
2023-02-18T05:50:30.809Z,97724.97
2023-02-18T05:51:32.422Z,97720.19
2023-02-18T05:52:34.048Z,97722.09
2023-02-18T05:53:35.615Z,97717.13
2023-02-18T05:54:38.476Z,97717.63
2023-02-18T05:55:40.041Z,97718.16
2023-02-18T05:56:41.630Z,97721.69
2023-02-18T05:57:43.192Z,97734.63
2023-02-18T05:58:45.056Z,97728.78
2023-02-18T05:59:46.626Z,97726.06
2023-02-18T06:00:48.136Z,97728.63
2023-02-18T06:01:49.834Z,97735.63
2023-02-18T06:02:52.200Z,97735.78
2023-02-18T06:03:53.775Z,97741.19
2023-02-18T06:04:55.282Z,97744.50
2023-02-18T06:05:57.071Z,97742.56
2023-02-18T06:06:58.669Z,97742.63
2023-02-18T06:08:00.271Z,97739.75
2023-02-18T06:09:02.276Z,97734.53
2023-02-18T06:10:05.093Z,97742.00
2023-02-18T06:11:06.748Z,97738.91
2023-02-18T06:12:08.303Z,97741.94
2023-02-18T06:13:09.907Z,97734.94
2023-02-18T06:14:11.507Z,97741.84
2023-02-18T06:15:13.087Z,97742.16
2023-02-18T06:16:14.765Z,97729.00
2023-02-18T06:17:18.755Z,97729.59
2023-02-18T06:18:21.030Z,97733.88
2023-02-18T06:19:23.196Z,97728.63
2023-02-18T06:20:24.774Z,97734.53
2023-02-18T06:21:26.889Z,97729.28
2023-02-18T06:22:28.520Z,97732.69
2023-02-18T06:23:30.340Z,97731.13
2023-02-18T06:24:32.129Z,97730.38
2023-02-18T06:25:33.675Z,97733.06
2023-02-18T06:26:35.344Z,97736.03
2023-02-18T06:27:37.422Z,97741.66
2023-02-18T06:28:38.990Z,97749.69
2023-02-18T06:29:40.563Z,97746.22
2023-02-18T06:30:42.357Z,97750.69
2023-02-18T06:31:44.088Z,97739.59
2023-02-18T06:32:45.743Z,97745.09
2023-02-18T06:33:47.442Z,97743.22
2023-02-18T06:34:49.314Z,97738.44
2023-02-18T06:35:59.626Z,97736.81
2023-02-18T06:37:01.535Z,97743.97
2023-02-18T06:38:03.732Z,97745.94
2023-02-18T06:39:07.545Z,97744.75
2023-02-18T06:40:09.366Z,97740.16
2023-02-18T06:41:12.587Z,97738.53
2023-02-18T06:42:14.117Z,97747.44
2023-02-18T06:43:16.228Z,97741.78
2023-02-18T06:44:17.892Z,97750.50
2023-02-18T06:45:19.664Z,97749.47
2023-02-18T06:46:21.470Z,97757.28
2023-02-18T06:47:23.051Z,97751.50
2023-02-18T06:48:24.877Z,97746.03
2023-02-18T06:49:26.455Z,97748.72
2023-02-18T06:50:27.964Z,97746.41
2023-02-18T06:51:29.785Z,97740.16
2023-02-18T06:52:33.423Z,97742.22
2023-02-18T06:53:35.002Z,97739.84
2023-02-18T06:54:36.820Z,97742.53
2023-02-18T06:55:38.995Z,97744.44
2023-02-18T06:56:40.536Z,97747.97
2023-02-18T06:57:42.378Z,97741.72
2023-02-18T06:58:43.944Z,97740.19
2023-02-18T06:59:45.614Z,97740.22
2023-02-18T07:00:47.291Z,97737.56
2023-02-18T07:01:48.856Z,97743.94
2023-02-18T07:02:50.649Z,97742.69
2023-02-18T07:03:52.232Z,97743.00
2023-02-18T07:04:53.863Z,97742.28
2023-02-18T07:05:55.695Z,97739.44
2023-02-18T07:06:57.272Z,97742.13
2023-02-18T07:07:58.863Z,97740.06
2023-02-18T07:09:00.524Z,97746.44
2023-02-18T07:10:02.341Z,97743.81
2023-02-18T07:11:04.273Z,97746.19
2023-02-18T07:12:06.123Z,97738.25
2023-02-18T07:13:07.845Z,97741.72
2023-02-18T07:14:09.406Z,97743.09
2023-02-18T07:15:11.760Z,97739.13
2023-02-18T07:16:13.485Z,97741.75
2023-02-18T07:17:15.164Z,97740.19
2023-02-18T07:18:16.779Z,97741.72
2023-02-18T07:19:19.115Z,97736.19
2023-02-18T07:20:21.216Z,97737.00
2023-02-18T07:21:22.750Z,97732.28
2023-02-18T07:22:24.315Z,97737.78
2023-02-18T07:23:25.912Z,97743.38
2023-02-18T07:24:27.489Z,97737.69
2023-02-18T07:25:29.270Z,97734.50
2023-02-18T07:26:30.897Z,97726.13
2023-02-18T07:27:32.499Z,97729.53
2023-02-18T07:28:34.397Z,97720.22
2023-02-18T07:29:35.952Z,97726.38
2023-02-18T07:30:37.522Z,97723.19
2023-02-18T07:31:39.514Z,97729.81
2023-02-18T07:32:41.312Z,97731.16
2023-02-18T07:33:43.200Z,97722.66
2023-02-18T07:34:44.923Z,97723.22
2023-02-18T07:35:46.494Z,97720.28
2023-02-18T07:36:49.004Z,97721.59
2023-02-18T07:37:51.287Z,97724.84
2023-02-18T07:38:52.886Z,97724.53
2023-02-18T07:39:54.476Z,97730.38
2023-02-18T07:40:57.248Z,97729.03
2023-02-18T07:41:58.952Z,97724.50
2023-02-18T07:43:00.528Z,97722.66
2023-02-18T07:44:02.065Z,97719.56
2023-02-18T07:45:03.920Z,97721.72
2023-02-18T07:46:07.363Z,97725.41
2023-02-18T07:47:12.861Z,97732.28
2023-02-18T07:48:14.547Z,97732.25
2023-02-18T07:49:16.295Z,97727.97
2023-02-18T07:50:18.043Z,97726.38
2023-02-18T07:51:19.773Z,97723.44
2023-02-18T07:52:21.346Z,97722.38
2023-02-18T07:53:22.870Z,97719.97
2023-02-18T07:54:24.546Z,97716.00
2023-02-18T07:55:46.081Z,97720.28
2023-02-18T07:56:47.798Z,97717.91
2023-02-18T07:58:00.918Z,97718.41
2023-02-18T07:59:03.091Z,97719.69
2023-02-18T08:00:05.057Z,97712.00
2023-02-18T08:01:10.101Z,97710.44
2023-02-18T08:02:18.876Z,97711.47
2023-02-18T08:03:23.373Z,97700.84
2023-02-18T08:04:24.985Z,97709.34
2023-02-18T08:05:26.608Z,97706.63
2023-02-18T08:06:41.244Z,97710.84
2023-02-18T08:07:43.138Z,97708.56
2023-02-18T08:09:46.500Z,97702.72
2023-02-18T08:10:49.469Z,97695.53
2023-02-18T08:11:50.981Z,97696.66
2023-02-18T08:12:52.517Z,97700.47
2023-02-18T08:13:54.085Z,97702.13
2023-02-18T08:14:55.675Z,97701.63
2023-02-18T08:15:58.163Z,97704.25
2023-02-18T08:16:59.776Z,97714.31
2023-02-18T08:18:01.608Z,97696.44
2023-02-18T08:19:06.050Z,97695.00
2023-02-18T08:20:08.542Z,97700.75
2023-02-18T08:21:10.583Z,97705.25
2023-02-18T08:22:12.139Z,97706.00
2023-02-18T08:23:15.623Z,97698.69
2023-02-18T08:24:17.244Z,97703.88
2023-02-18T08:25:29.276Z,97696.66
2023-02-18T08:26:31.704Z,97690.84
2023-02-18T08:27:33.262Z,97694.66
2023-02-18T08:28:35.913Z,97687.28
2023-02-18T08:29:37.510Z,97697.09
2023-02-18T08:30:39.159Z,97691.00
2023-02-18T08:31:42.656Z,97693.63
2023-02-18T08:32:45.512Z,97685.63
2023-02-18T08:33:48.006Z,97691.47
2023-02-18T08:34:49.574Z,97696.75
2023-02-18T08:35:53.448Z,97689.25
2023-02-18T08:36:55.043Z,97684.75
2023-02-18T08:37:57.755Z,97687.69
2023-02-18T08:39:00.182Z,97688.75
2023-02-18T08:40:03.348Z,97691.38
2023-02-18T08:41:07.293Z,97683.88
2023-02-18T08:42:09.014Z,97687.84
2023-02-18T08:43:11.157Z,97686.97
2023-02-18T08:44:12.759Z,97692.03
2023-02-18T08:45:14.447Z,97684.47
2023-02-18T08:46:19.222Z,97693.16
2023-02-18T08:48:18.158Z,97694.13
2023-02-18T08:48:48.499Z,97693.41
2023-02-18T08:49:50.203Z,97692.94
2023-02-18T08:50:51.838Z,97689.53
2023-02-18T08:51:53.419Z,97687.22
2023-02-18T08:52:56.336Z,97684.03
2023-02-18T08:53:58.511Z,97679.81
2023-02-18T08:55:00.079Z,97673.94
2023-02-18T08:56:01.636Z,97681.38
2023-02-18T08:57:03.238Z,97682.75
2023-02-18T08:58:05.749Z,97677.72
2023-02-18T08:59:07.343Z,97681.94
2023-02-18T09:00:09.612Z,97680.28
2023-02-18T09:01:12.624Z,97685.53
2023-02-18T09:02:14.989Z,97690.00
2023-02-18T09:03:16.550Z,97697.13
2023-02-18T09:04:18.478Z,97692.25
2023-02-18T09:05:20.073Z,97698.63
2023-02-18T09:06:21.689Z,97693.81
2023-02-18T09:07:23.255Z,97698.03
2023-02-18T09:08:24.818Z,97693.78
2023-02-18T09:09:26.354Z,97691.44
2023-02-18T09:10:27.941Z,97689.56
2023-02-18T09:11:29.507Z,97684.81
2023-02-18T09:12:31.325Z,97684.75
2023-02-18T09:13:33.166Z,97678.84
2023-02-18T09:14:35.023Z,97689.00
2023-02-18T09:15:36.862Z,97684.78
2023-02-18T09:16:39.528Z,97673.06
2023-02-18T09:17:41.194Z,97670.78
2023-02-18T09:18:42.777Z,97672.78
2023-02-18T09:19:44.287Z,97675.47
2023-02-18T09:20:45.933Z,97673.53
2023-02-18T09:21:47.545Z,97668.69
2023-02-18T09:22:49.133Z,97666.81
2023-02-18T09:23:51.536Z,97661.75
2023-02-18T09:24:53.205Z,97664.03
2023-02-18T09:25:55.275Z,97666.34
2023-02-18T09:26:56.830Z,97674.28
2023-02-18T09:27:58.464Z,97668.84
2023-02-18T09:29:00.195Z,97658.66
2023-02-18T09:30:01.835Z,97664.38
2023-02-18T09:31:08.960Z,97662.72
2023-02-18T09:32:14.526Z,97668.06
2023-02-18T09:33:22.065Z,97666.81
2023-02-18T09:34:23.668Z,97662.38
2023-02-18T09:35:25.503Z,97662.50
2023-02-18T09:36:27.871Z,97667.25
2023-02-18T09:37:29.539Z,97666.47
2023-02-18T09:38:31.472Z,97664.31
2023-02-18T09:39:33.060Z,97653.06
2023-02-18T09:40:37.523Z,97659.03
2023-02-18T09:42:14.062Z,97654.94
2023-02-18T09:43:36.484Z,97649.63
2023-02-18T09:45:02.464Z,97650.47
2023-02-18T09:46:06.899Z,97652.22
2023-02-18T09:47:34.803Z,97640.19
2023-02-18T09:48:38.445Z,97637.69
2023-02-18T09:49:54.003Z,97629.09
2023-02-18T09:50:55.743Z,97627.22
2023-02-18T09:52:06.876Z,97613.84
2023-02-18T09:53:13.147Z,97618.59
2023-02-18T09:54:17.960Z,97624.94
2023-02-18T09:55:29.950Z,97623.41
2023-02-18T09:56:35.475Z,97625.47
2023-02-18T09:57:48.560Z,97620.69
2023-02-18T09:58:51.529Z,97618.81
2023-02-18T10:00:15.308Z,97621.50
2023-02-18T10:01:35.593Z,97620.50
2023-02-18T10:02:39.591Z,97617.50
2023-02-18T10:03:43.809Z,97615.03
2023-02-18T10:04:46.026Z,97609.94
2023-02-18T10:06:06.872Z,97610.69
2023-02-18T10:07:21.842Z,97597.44
2023-02-18T10:08:28.015Z,97595.34
2023-02-18T10:09:37.233Z,97604.53
2023-02-18T10:10:42.915Z,97609.66
2023-02-18T10:11:49.512Z,97604.91
2023-02-18T10:12:52.819Z,97599.44
2023-02-18T10:13:55.154Z,97601.00
2023-02-18T10:15:00.183Z,97593.50
2023-02-18T10:16:03.963Z,97596.91
2023-02-18T10:17:07.070Z,97590.72
2023-02-18T10:18:19.374Z,97595.13
2023-02-18T10:19:29.806Z,97588.22
2023-02-18T10:20:33.209Z,97591.19
2023-02-18T10:21:36.239Z,97578.72
2023-02-18T10:22:38.700Z,97578.72
2023-02-18T10:23:54.996Z,97577.97
2023-02-18T10:25:03.173Z,97579.53
2023-02-18T10:26:08.232Z,97572.31
2023-02-18T10:27:17.650Z,97568.44
2023-02-18T10:28:23.354Z,97565.50
2023-02-18T10:29:25.884Z,97559.53
2023-02-18T10:30:30.362Z,97566.19
2023-02-18T10:31:39.377Z,97560.16
2023-02-18T10:32:44.335Z,97560.63
2023-02-18T10:33:57.218Z,97556.78
2023-02-18T10:35:21.245Z,97550.75
2023-02-18T10:36:36.780Z,97546.66
2023-02-18T10:38:10.653Z,97548.56
2023-02-18T10:39:12.163Z,97535.97
2023-02-18T10:40:50.551Z,97543.75
2023-02-18T10:42:18.777Z,97531.88
2023-02-18T10:43:54.334Z,97535.84
2023-02-18T10:45:07.583Z,97532.84
2023-02-18T10:46:22.685Z,97522.88
2023-02-18T10:47:35.306Z,97520.91
2023-02-18T10:49:00.193Z,97517.19
2023-02-18T10:50:17.564Z,97510.59
2023-02-18T10:51:22.004Z,97516.13
2023-02-18T10:52:24.967Z,97515.53
2023-02-18T10:53:37.340Z,97512.34
2023-02-18T10:54:58.973Z,97516.06
2023-02-18T10:56:01.018Z,97513.91
2023-02-18T10:57:04.743Z,97505.38
2023-02-18T10:58:24.869Z,97503.81
2023-02-18T10:59:32.983Z,97498.97
2023-02-18T11:00:40.030Z,97503.09
2023-02-18T11:01:43.826Z,97499.97
2023-02-18T11:02:47.255Z,97501.22
2023-02-18T11:03:51.681Z,97501.50
2023-02-18T11:04:53.426Z,97496.78
2023-02-18T11:05:56.847Z,97486.06
2023-02-18T11:07:04.876Z,97490.94
2023-02-18T11:08:09.623Z,97490.97
2023-02-18T11:09:38.852Z,97477.72
2023-02-18T11:10:43.945Z,97483.59
2023-02-18T11:11:50.692Z,97477.88
2023-02-18T11:13:02.007Z,97478.38
2023-02-18T11:14:07.659Z,97475.41
2023-02-18T11:15:15.304Z,97476.63
2023-02-18T11:16:17.426Z,97473.91
2023-02-18T11:17:27.938Z,97468.25
2023-02-18T11:18:37.703Z,97465.13
2023-02-18T11:19:39.752Z,97463.03
2023-02-18T11:20:41.601Z,97458.63
2023-02-18T11:21:43.153Z,97464.66
2023-02-18T11:22:44.743Z,97458.50
2023-02-18T11:23:52.227Z,97454.25
2023-02-18T11:24:59.395Z,97453.63
2023-02-18T11:26:00.845Z,97453.13
2023-02-18T11:27:02.463Z,97447.31
2023-02-18T11:28:13.287Z,97455.22
2023-02-18T11:29:19.619Z,97442.28
2023-02-18T11:30:23.478Z,97443.06
2023-02-18T11:31:32.204Z,97442.44
2023-02-18T11:32:36.633Z,97437.44
2023-02-18T11:33:50.678Z,97427.06
2023-02-18T11:34:52.494Z,97430.97
2023-02-18T11:35:56.462Z,97429.72
2023-02-18T11:37:19.440Z,97427.50
2023-02-18T11:38:34.678Z,97412.38
2023-02-18T11:39:36.588Z,97412.03
2023-02-18T11:40:38.159Z,97416.44
2023-02-18T11:41:44.095Z,97416.59
2023-02-18T11:42:45.687Z,97416.13
2023-02-18T11:43:51.094Z,97412.34
2023-02-18T11:44:58.479Z,97413.59
2023-02-18T11:46:19.984Z,97402.59
2023-02-18T11:47:41.695Z,97410.63
2023-02-18T11:48:43.616Z,97401.16
2023-02-18T11:50:18.952Z,97409.53
2023-02-18T11:51:33.446Z,97398.50
2023-02-18T11:52:34.943Z,97399.41
2023-02-18T11:53:37.788Z,97396.41
2023-02-18T11:54:39.345Z,97399.84
2023-02-18T11:55:55.407Z,97391.31
2023-02-18T11:57:09.572Z,97392.09
2023-02-18T11:58:14.056Z,97390.34
2023-02-18T11:59:15.621Z,97388.91
2023-02-18T12:00:40.180Z,97386.97
2023-02-18T12:01:51.709Z,97379.84
2023-02-18T12:02:56.672Z,97381.41
2023-02-18T12:04:09.445Z,97380.00
2023-02-18T12:05:26.422Z,97369.88
2023-02-18T12:06:39.861Z,97380.75
2023-02-18T12:07:49.470Z,97377.88
2023-02-18T12:08:59.625Z,97378.00
2023-02-18T12:10:13.180Z,97373.56
2023-02-18T12:11:23.271Z,97368.16
2023-02-18T12:12:32.235Z,97366.31
2023-02-18T12:13:46.386Z,97360.16
2023-02-18T12:14:48.160Z,97363.84
2023-02-18T12:16:03.348Z,97355.78
2023-02-18T12:17:23.432Z,97358.59
2023-02-18T12:18:42.956Z,97357.28
2023-02-18T12:20:22.729Z,97358.31
2023-02-18T12:21:41.990Z,97357.69
2023-02-18T12:22:44.626Z,97352.03
2023-02-18T12:24:12.072Z,97346.66
2023-02-18T12:25:23.897Z,97354.06
2023-02-18T12:26:36.099Z,97337.09
2023-02-18T12:27:56.974Z,97334.31
2023-02-18T12:29:11.982Z,97328.41
2023-02-18T12:30:35.723Z,97332.47
2023-02-18T12:32:14.840Z,97331.00
2023-02-18T12:33:42.595Z,97330.16
2023-02-18T12:34:59.906Z,97328.47
2023-02-18T12:36:43.967Z,97319.06
2023-02-18T12:37:52.082Z,97326.47
2023-02-18T12:39:02.685Z,97327.16
2023-02-18T12:40:40.494Z,97328.16
2023-02-18T12:41:52.212Z,97331.19
2023-02-18T12:43:12.029Z,97332.78
2023-02-18T12:44:45.812Z,97324.13
2023-02-18T12:46:09.807Z,97328.50
2023-02-18T12:47:31.178Z,97326.28
2023-02-18T12:48:58.960Z,97320.66
2023-02-18T12:50:23.870Z,97323.25
2023-02-18T12:51:30.471Z,97318.19
2023-02-18T12:52:50.951Z,97314.38
2023-02-18T12:54:01.314Z,97313.06
2023-02-18T12:55:27.811Z,97310.81
2023-02-18T12:56:35.370Z,97307.91
2023-02-18T12:58:00.127Z,97307.22